sensor_id;sensor_type;location;lat;lon;timestamp;pressure;altitude;pressure_sealevel;temperature;humidity
50250;BME280;36133;42.522;27.456;2023-07-02T00:00:08;100355.28;;;24.66;45.81
50250;BME280;36133;42.522;27.456;2023-07-02T00:02:37;100101.63;;;23.20;45.69
50250;BME280;36133;42.522;27.456;2023-07-02T00:05:04;100335.66;;;24.97;45.51
50250;BME280;36133;42.522;27.456;2023-07-02T00:07:29;100385.50;;;25.39;44.95
50250;BME280;36133;42.522;27.456;2023-07-02T00:09:55;100520.84;;;26.45;44.49
50250;BME280;36133;42.522;27.456;2023-07-02T00:12:20;100291.94;;;25.09;44.30
50250;BME280;36133;42.522;27.456;2023-07-02T00:14:46;100416.50;;;25.84;44.41
50250;BME280;36133;42.522;27.456;2023-07-02T00:17:12;100509.09;;;26.11;45.04
50250;BME280;36133;42.522;27.456;2023-07-02T00:19:38;100414.97;;;25.73;44.71
50250;BME280;36133;42.522;27.456;2023-07-02T00:22:10;100476.34;;;26.18;44.34
50250;BME280;36133;42.522;27.456;2023-07-02T00:24:36;100420.59;;;25.87;44.46
50250;BME280;36133;42.522;27.456;2023-07-02T00:27:02;100516.03;;;26.08;45.33
50250;BME280;36133;42.522;27.456;2023-07-02T00:29:28;100515.16;;;25.60;46.24
50250;BME280;36133;42.522;27.456;2023-07-02T00:31:53;100480.00;;;25.07;46.90
50250;BME280;36133;42.522;27.456;2023-07-02T00:34:19;100501.97;;;25.52;46.63
50250;BME280;36133;42.522;27.456;2023-07-02T00:36:45;100446.75;;;25.18;46.53
50250;BME280;36133;42.522;27.456;2023-07-02T00:39:11;100329.47;;;25.10;45.13
50250;BME280;36133;42.522;27.456;2023-07-02T00:41:39;100489.25;;;26.04;44.98
50250;BME280;36133;42.522;27.456;2023-07-02T00:44:07;100223.50;;;24.53;44.82
50250;BME280;36133;42.522;27.456;2023-07-02T00:46:34;100465.88;;;26.15;44.49
50250;BME280;36133;42.522;27.456;2023-07-02T00:49:00;100256.38;;;24.10;46.01
50250;BME280;36133;42.522;27.456;2023-07-02T00:51:30;100481.34;;;25.44;46.87
50250;BME280;36133;42.522;27.456;2023-07-02T00:53:57;100388.03;;;25.07;46.18
50250;BME280;36133;42.522;27.456;2023-07-02T00:56:24;100267.47;;;24.68;45.81
50250;BME280;36133;42.522;27.456;2023-07-02T00:58:53;100249.59;;;24.90;44.58
50250;BME280;36133;42.522;27.456;2023-07-02T01:01:23;100458.59;;;26.00;45.49
50250;BME280;36133;42.522;27.456;2023-07-02T01:04:03;100413.34;;;25.43;46.03
50250;BME280;36133;42.522;27.456;2023-07-02T01:06:33;100217.38;;;24.56;45.00
50250;BME280;36133;42.522;27.456;2023-07-02T01:09:04;100477.91;;;26.24;44.85
50250;BME280;36133;42.522;27.456;2023-07-02T01:11:36;100173.47;;;24.36;44.99
50250;BME280;36133;42.522;27.456;2023-07-02T01:14:17;100422.47;;;25.91;44.99
50250;BME280;36133;42.522;27.456;2023-07-02T01:16:44;100473.81;;;26.21;44.84
50250;BME280;36133;42.522;27.456;2023-07-02T01:19:16;100460.72;;;26.08;45.27
50250;BME280;36133;42.522;27.456;2023-07-02T01:21:45;100439.31;;;26.56;44.12
50250;BME280;36133;42.522;27.456;2023-07-02T01:24:12;100410.41;;;26.25;44.30
50250;BME280;36133;42.522;27.456;2023-07-02T01:26:43;100305.09;;;25.60;44.29
50250;BME280;36133;42.522;27.456;2023-07-02T01:29:18;100297.03;;;25.45;44.63
50250;BME280;36133;42.522;27.456;2023-07-02T01:31:44;100470.38;;;26.86;44.40
50250;BME280;36133;42.522;27.456;2023-07-02T01:34:10;100457.59;;;26.90;44.23
50250;BME280;36133;42.522;27.456;2023-07-02T01:36:37;100052.72;;;24.27;44.12
50250;BME280;36133;42.522;27.456;2023-07-02T01:39:03;100426.94;;;26.68;44.50
50250;BME280;36133;42.522;27.456;2023-07-02T01:41:28;100448.81;;;26.26;45.62
50250;BME280;36133;42.522;27.456;2023-07-02T01:43:55;100383.59;;;25.11;47.31
50250;BME280;36133;42.522;27.456;2023-07-02T01:46:21;100315.78;;;24.95;46.57
50250;BME280;36133;42.522;27.456;2023-07-02T01:48:47;100230.78;;;24.68;45.47
50250;BME280;36133;42.522;27.456;2023-07-02T01:51:12;100460.78;;;26.46;44.72
50250;BME280;36133;42.522;27.456;2023-07-02T01:53:39;100331.00;;;25.45;45.30
50250;BME280;36133;42.522;27.456;2023-07-02T01:56:05;100324.06;;;25.48;44.49
50250;BME280;36133;42.522;27.456;2023-07-02T01:58:30;100356.00;;;25.78;44.61
50250;BME280;36133;42.522;27.456;2023-07-02T02:00:56;100088.75;;;24.12;44.76
50250;BME280;36133;42.522;27.456;2023-07-02T02:03:22;100458.72;;;26.51;45.24
50250;BME280;36133;42.522;27.456;2023-07-02T02:05:51;100472.50;;;26.56;45.66
50250;BME280;36133;42.522;27.456;2023-07-02T02:08:16;100426.78;;;26.40;45.58
50250;BME280;36133;42.522;27.456;2023-07-02T02:10:42;100143.47;;;24.53;46.01
50250;BME280;36133;42.522;27.456;2023-07-02T02:13:08;100456.34;;;26.45;46.10
50250;BME280;36133;42.522;27.456;2023-07-02T02:15:33;100264.44;;;24.70;47.35
50250;BME280;36133;42.522;27.456;2023-07-02T02:17:59;100240.16;;;24.43;49.27
50250;BME280;36133;42.522;27.456;2023-07-02T02:20:24;100481.50;;;24.50;52.96
50250;BME280;36133;42.522;27.456;2023-07-02T02:22:50;100267.84;;;22.54;52.73
50250;BME280;36133;42.522;27.456;2023-07-02T02:25:15;100438.81;;;23.78;52.34
50250;BME280;36133;42.522;27.456;2023-07-02T02:27:41;100406.22;;;23.95;51.16
50250;BME280;36133;42.522;27.456;2023-07-02T02:30:08;100462.84;;;24.71;50.42
50250;BME280;36133;42.522;27.456;2023-07-02T02:32:34;100458.63;;;24.45;50.79
50250;BME280;36133;42.522;27.456;2023-07-02T02:35:00;100381.56;;;24.14;50.50
50250;BME280;36133;42.522;27.456;2023-07-02T02:37:25;100467.25;;;24.38;51.80
50250;BME280;36133;42.522;27.456;2023-07-02T02:39:51;100463.78;;;24.12;52.20
50250;BME280;36133;42.522;27.456;2023-07-02T02:42:16;100446.53;;;23.81;53.07
50250;BME280;36133;42.522;27.456;2023-07-02T02:44:42;100466.38;;;23.78;53.40
50250;BME280;36133;42.522;27.456;2023-07-02T02:47:07;100437.00;;;23.33;53.64
50250;BME280;36133;42.522;27.456;2023-07-02T02:49:33;100422.59;;;23.66;53.07
50250;BME280;36133;42.522;27.456;2023-07-02T02:51:58;100482.28;;;23.96;53.19
50250;BME280;36133;42.522;27.456;2023-07-02T02:54:24;100220.78;;;22.66;52.33
50250;BME280;36133;42.522;27.456;2023-07-02T02:56:49;100405.38;;;24.00;51.81
50250;BME280;36133;42.522;27.456;2023-07-02T02:59:15;100270.25;;;23.61;50.41
50250;BME280;36133;42.522;27.456;2023-07-02T03:01:40;100363.97;;;24.05;50.34
50250;BME280;36133;42.522;27.456;2023-07-02T03:04:06;100420.28;;;23.99;50.92
50250;BME280;36133;42.522;27.456;2023-07-02T03:06:34;100476.03;;;23.71;53.27
50250;BME280;36133;42.522;27.456;2023-07-02T03:08:59;100348.13;;;22.61;54.62
50250;BME280;36133;42.522;27.456;2023-07-02T03:11:25;100459.53;;;23.65;53.46
50250;BME280;36133;42.522;27.456;2023-07-02T03:13:50;100464.97;;;23.91;52.83
50250;BME280;36133;42.522;27.456;2023-07-02T03:16:16;100482.25;;;24.07;52.93
50250;BME280;36133;42.522;27.456;2023-07-02T03:18:41;100485.34;;;24.94;50.55
50250;BME280;36133;42.522;27.456;2023-07-02T03:21:07;100425.50;;;24.50;50.52
50250;BME280;36133;42.522;27.456;2023-07-02T03:23:32;100491.25;;;24.33;51.64
50250;BME280;36133;42.522;27.456;2023-07-02T03:25:58;100334.47;;;23.51;52.11
50250;BME280;36133;42.522;27.456;2023-07-02T03:28:24;100061.72;;;21.22;53.67
50250;BME280;36133;42.522;27.456;2023-07-02T03:30:49;100369.28;;;23.27;53.87
50250;BME280;36133;42.522;27.456;2023-07-02T03:33:15;100420.41;;;23.58;53.87
50250;BME280;36133;42.522;27.456;2023-07-02T03:35:40;100508.94;;;24.26;53.95
50250;BME280;36133;42.522;27.456;2023-07-02T03:38:06;100491.16;;;23.83;54.67
50250;BME280;36133;42.522;27.456;2023-07-02T03:40:31;100500.72;;;24.06;54.33
50250;BME280;36133;42.522;27.456;2023-07-02T03:42:57;100506.47;;;24.25;53.43
50250;BME280;36133;42.522;27.456;2023-07-02T03:45:22;100477.75;;;24.26;52.81
50250;BME280;36133;42.522;27.456;2023-07-02T03:47:48;100501.56;;;24.66;52.34
50250;BME280;36133;42.522;27.456;2023-07-02T03:50:14;100509.13;;;24.90;51.82
50250;BME280;36133;42.522;27.456;2023-07-02T03:52:39;100485.38;;;24.49;52.43
50250;BME280;36133;42.522;27.456;2023-07-02T03:55:05;100503.41;;;24.37;53.28
50250;BME280;36133;42.522;27.456;2023-07-02T03:57:31;100450.09;;;24.41;52.37
50250;BME280;36133;42.522;27.456;2023-07-02T03:59:57;100516.56;;;24.45;53.63
50250;BME280;36133;42.522;27.456;2023-07-02T04:02:22;100510.47;;;24.92;52.31
50250;BME280;36133;42.522;27.456;2023-07-02T04:04:48;100518.09;;;24.66;53.18
50250;BME280;36133;42.522;27.456;2023-07-02T04:07:13;100512.00;;;24.74;52.73
50250;BME280;36133;42.522;27.456;2023-07-02T04:09:39;100427.44;;;24.00;53.38
50250;BME280;36133;42.522;27.456;2023-07-02T04:12:05;100406.31;;;23.70;53.92
50250;BME280;36133;42.522;27.456;2023-07-02T04:14:30;100373.28;;;23.50;54.19
50250;BME280;36133;42.522;27.456;2023-07-02T04:16:56;100524.28;;;24.92;52.80
50250;BME280;36133;42.522;27.456;2023-07-02T04:19:21;100506.53;;;25.37;51.60
50250;BME280;36133;42.522;27.456;2023-07-02T04:21:47;100490.50;;;24.66;52.81
50250;BME280;36133;42.522;27.456;2023-07-02T04:24:13;100536.25;;;25.22;52.40
50250;BME280;36133;42.522;27.456;2023-07-02T04:26:38;100442.78;;;24.16;53.48
50250;BME280;36133;42.522;27.456;2023-07-02T04:29:08;100469.59;;;24.55;52.70
50250;BME280;36133;42.522;27.456;2023-07-02T04:31:34;100463.31;;;24.49;52.84
50250;BME280;36133;42.522;27.456;2023-07-02T04:33:59;100533.34;;;25.03;52.25
50250;BME280;36133;42.522;27.456;2023-07-02T04:36:25;100441.16;;;24.94;51.21
50250;BME280;36133;42.522;27.456;2023-07-02T04:38:51;100500.28;;;25.85;49.35
50250;BME280;36133;42.522;27.456;2023-07-02T04:41:18;100475.41;;;26.65;47.19
50250;BME280;36133;42.522;27.456;2023-07-02T04:43:43;100438.88;;;26.25;46.99
50250;BME280;36133;42.522;27.456;2023-07-02T04:46:11;100472.34;;;27.04;44.98
50250;BME280;36133;42.522;27.456;2023-07-02T04:48:38;100466.00;;;27.18;44.89
50250;BME280;36133;42.522;27.456;2023-07-02T04:51:03;100469.63;;;27.64;43.44
50250;BME280;36133;42.522;27.456;2023-07-02T04:53:29;100497.84;;;27.66;43.46
50250;BME280;36133;42.522;27.456;2023-07-02T04:55:55;100326.56;;;26.76;42.71
50250;BME280;36133;42.522;27.456;2023-07-02T04:58:22;100160.03;;;26.41;41.41
50250;BME280;36133;42.522;27.456;2023-07-02T05:00:48;100219.06;;;26.50;41.49
50250;BME280;36133;42.522;27.456;2023-07-02T05:03:14;100380.63;;;27.33;41.95
50250;BME280;36133;42.522;27.456;2023-07-02T05:05:40;100502.84;;;28.47;41.02
50250;BME280;36133;42.522;27.456;2023-07-02T05:08:06;100403.22;;;28.68;39.19
50250;BME280;36133;42.522;27.456;2023-07-02T05:10:32;100560.63;;;30.07;38.23
50250;BME280;36133;42.522;27.456;2023-07-02T05:12:57;100351.09;;;29.66;36.66
50250;BME280;36133;42.522;27.456;2023-07-02T05:15:23;100175.34;;;28.64;36.54
50250;BME280;36133;42.522;27.456;2023-07-02T05:17:49;100472.09;;;29.86;37.53
50250;BME280;36133;42.522;27.456;2023-07-02T05:20:15;100533.75;;;31.92;34.95
50250;BME280;36133;42.522;27.456;2023-07-02T05:22:40;100403.91;;;31.86;33.39
50250;BME280;36133;42.522;27.456;2023-07-02T05:25:06;100461.41;;;31.32;34.76
50250;BME280;36133;42.522;27.456;2023-07-02T05:27:32;100483.97;;;32.03;34.05
50250;BME280;36133;42.522;27.456;2023-07-02T05:29:58;100528.41;;;32.08;34.67
50250;BME280;36133;42.522;27.456;2023-07-02T05:32:23;100533.75;;;32.60;33.18
50250;BME280;36133;42.522;27.456;2023-07-02T05:34:49;100541.13;;;31.50;35.39
50250;BME280;36133;42.522;27.456;2023-07-02T05:37:15;100538.88;;;31.26;35.86
50250;BME280;36133;42.522;27.456;2023-07-02T05:39:40;100320.22;;;30.02;35.59
50250;BME280;36133;42.522;27.456;2023-07-02T05:42:06;100410.66;;;30.22;35.78
50250;BME280;36133;42.522;27.456;2023-07-02T05:44:31;100388.66;;;29.95;35.91
50250;BME280;36133;42.522;27.456;2023-07-02T05:47:00;100324.03;;;29.32;36.88
50250;BME280;36133;42.522;27.456;2023-07-02T05:49:26;100457.47;;;30.12;37.48
50250;BME280;36133;42.522;27.456;2023-07-02T05:51:52;100364.03;;;29.23;38.30
50250;BME280;36133;42.522;27.456;2023-07-02T05:54:19;100495.41;;;30.82;36.93
50250;BME280;36133;42.522;27.456;2023-07-02T05:56:45;100507.91;;;31.74;35.43
50250;BME280;36133;42.522;27.456;2023-07-02T05:59:11;100511.19;;;32.06;35.04
50250;BME280;36133;42.522;27.456;2023-07-02T06:01:40;100443.19;;;32.94;33.61
50250;BME280;36133;42.522;27.456;2023-07-02T06:04:05;100506.41;;;34.75;31.16
50250;BME280;36133;42.522;27.456;2023-07-02T06:06:30;100509.69;;;36.59;28.78
50250;BME280;36133;42.522;27.456;2023-07-02T06:08:56;100499.72;;;37.85;27.21
50250;BME280;36133;42.522;27.456;2023-07-02T06:11:22;100504.56;;;38.93;25.46
50250;BME280;36133;42.522;27.456;2023-07-02T06:13:47;100485.94;;;39.22;25.14
50250;BME280;36133;42.522;27.456;2023-07-02T06:16:13;100490.25;;;38.49;25.88
50250;BME280;36133;42.522;27.456;2023-07-02T06:18:44;100444.28;;;38.75;24.79
50250;BME280;36133;42.522;27.456;2023-07-02T06:21:14;100509.84;;;37.89;25.91
50250;BME280;36133;42.522;27.456;2023-07-02T06:23:43;100265.22;;;37.12;26.02
50250;BME280;36133;42.522;27.456;2023-07-02T06:26:12;100390.66;;;37.13;26.29
50250;BME280;36133;42.522;27.456;2023-07-02T06:29:16;100264.97;;;36.75;25.75
50250;BME280;36133;42.522;27.456;2023-07-02T06:31:44;100391.16;;;37.91;25.34
50250;BME280;36133;42.522;27.456;2023-07-02T06:34:19;100346.97;;;38.95;23.63
50250;BME280;36133;42.522;27.456;2023-07-02T06:36:45;100269.09;;;36.58;25.64
50250;BME280;36133;42.522;27.456;2023-07-02T06:39:11;100309.94;;;36.32;26.41
50250;BME280;36133;42.522;27.456;2023-07-02T06:41:36;100434.63;;;37.21;26.85
50250;BME280;36133;42.522;27.456;2023-07-02T06:44:02;100496.31;;;37.10;27.10
50250;BME280;36133;42.522;27.456;2023-07-02T06:46:29;100417.69;;;35.54;28.95
50250;BME280;36133;42.522;27.456;2023-07-02T06:48:55;100502.34;;;36.35;28.76
50250;BME280;36133;42.522;27.456;2023-07-02T06:51:24;100509.09;;;36.69;28.04
50250;BME280;36133;42.522;27.456;2023-07-02T06:53:53;100373.66;;;34.95;28.85
50250;BME280;36133;42.522;27.456;2023-07-02T06:56:18;100390.69;;;33.57;30.66
50250;BME280;36133;42.522;27.456;2023-07-02T06:58:44;100177.25;;;32.14;30.97
50250;BME280;36133;42.522;27.456;2023-07-02T07:01:12;100385.25;;;32.82;31.47
50250;BME280;36133;42.522;27.456;2023-07-02T07:03:38;100378.47;;;33.04;31.19
50250;BME280;36133;42.522;27.456;2023-07-02T07:06:04;100237.69;;;32.63;30.42
50250;BME280;36133;42.522;27.456;2023-07-02T07:08:30;100207.34;;;32.86;29.90
50250;BME280;36133;42.522;27.456;2023-07-02T07:10:55;100348.13;;;33.39;30.52
50250;BME280;36133;42.522;27.456;2023-07-02T07:13:21;100182.97;;;32.75;29.47
50250;BME280;36133;42.522;27.456;2023-07-02T07:15:49;100333.97;;;34.65;28.36
50250;BME280;36133;42.522;27.456;2023-07-02T07:18:20;100122.50;;;33.59;27.42
50250;BME280;36133;42.522;27.456;2023-07-02T07:20:45;100475.19;;;36.43;26.49
50250;BME280;36133;42.522;27.456;2023-07-02T07:23:18;100478.97;;;37.73;25.47
50250;BME280;36133;42.522;27.456;2023-07-02T07:25:50;100328.91;;;39.04;22.21
50250;BME280;36133;42.522;27.456;2023-07-02T07:28:16;100086.06;;;37.83;20.84
50250;BME280;36133;42.522;27.456;2023-07-02T07:30:45;100353.34;;;42.10;19.55
50250;BME280;36133;42.522;27.456;2023-07-02T07:33:10;100351.81;;;41.60;19.73
50250;BME280;36133;42.522;27.456;2023-07-02T07:35:36;100272.53;;;40.78;21.17
50250;BME280;36133;42.522;27.456;2023-07-02T07:38:08;100332.44;;;41.33;20.98
50250;BME280;36133;42.522;27.456;2023-07-02T07:40:34;100264.03;;;40.63;21.65
50250;BME280;36133;42.522;27.456;2023-07-02T07:43:02;100443.13;;;42.49;21.41
50250;BME280;36133;42.522;27.456;2023-07-02T07:45:35;100178.78;;;41.01;21.43
50250;BME280;36133;42.522;27.456;2023-07-02T07:48:01;100377.47;;;42.58;20.93
50250;BME280;36133;42.522;27.456;2023-07-02T07:50:30;100376.19;;;42.69;19.45
50250;BME280;36133;42.522;27.456;2023-07-02T07:52:56;100468.00;;;43.11;19.21
50250;BME280;36133;42.522;27.456;2023-07-02T07:55:21;100327.84;;;40.57;19.95
50250;BME280;36133;42.522;27.456;2023-07-02T07:57:47;100238.88;;;41.76;19.00
50250;BME280;36133;42.522;27.456;2023-07-02T08:00:16;100394.53;;;42.47;18.42
50250;BME280;36133;42.522;27.456;2023-07-02T08:02:45;100097.72;;;41.56;18.45
50250;BME280;36133;42.522;27.456;2023-07-02T08:05:12;100380.91;;;46.30;16.33
50250;BME280;36133;42.522;27.456;2023-07-02T08:07:39;100318.84;;;46.70;15.33
50250;BME280;36133;42.522;27.456;2023-07-02T08:10:08;100291.63;;;43.88;16.80
50250;BME280;36133;42.522;27.456;2023-07-02T08:12:37;100234.56;;;40.72;19.32
50250;BME280;36133;42.522;27.456;2023-07-02T08:15:03;100225.97;;;41.53;18.20
50250;BME280;36133;42.522;27.456;2023-07-02T08:17:34;100228.91;;;41.07;18.99
50250;BME280;36133;42.522;27.456;2023-07-02T08:20:01;100147.66;;;40.36;19.38
50250;BME280;36133;42.522;27.456;2023-07-02T08:22:29;100339.56;;;42.20;18.32
50250;BME280;36133;42.522;27.456;2023-07-02T08:24:57;100498.72;;;43.38;17.87
50250;BME280;36133;42.522;27.456;2023-07-02T08:27:30;100487.78;;;43.29;17.82
50250;BME280;36133;42.522;27.456;2023-07-02T08:29:56;100187.66;;;40.78;18.61
50250;BME280;36133;42.522;27.456;2023-07-02T08:32:21;100144.81;;;40.36;18.60
50250;BME280;36133;42.522;27.456;2023-07-02T08:34:47;100498.66;;;42.50;18.71
50250;BME280;36133;42.522;27.456;2023-07-02T08:37:13;100314.25;;;43.16;17.66
50250;BME280;36133;42.522;27.456;2023-07-02T08:39:39;100387.28;;;40.61;19.90
50250;BME280;36133;42.522;27.456;2023-07-02T08:42:09;100121.41;;;40.54;19.43
50250;BME280;36133;42.522;27.456;2023-07-02T08:44:34;100274.72;;;43.36;17.58
50250;BME280;36133;42.522;27.456;2023-07-02T08:47:01;100256.47;;;44.05;17.09
50250;BME280;36133;42.522;27.456;2023-07-02T08:49:33;100052.09;;;42.51;17.38
50250;BME280;36133;42.522;27.456;2023-07-02T08:52:14;100059.91;;;40.83;18.83
50250;BME280;36133;42.522;27.456;2023-07-02T08:54:39;100484.03;;;40.98;21.37
50250;BME280;36133;42.522;27.456;2023-07-02T08:57:12;100124.19;;;40.22;20.26
50250;BME280;36133;42.522;27.456;2023-07-02T08:59:43;100371.16;;;42.07;19.82
50250;BME280;36133;42.522;27.456;2023-07-02T09:02:08;100410.16;;;43.50;18.90
50250;BME280;36133;42.522;27.456;2023-07-02T09:04:34;100308.88;;;42.74;21.79
50250;BME280;36133;42.522;27.456;2023-07-02T09:09:33;100323.22;;;45.12;19.47
50250;BME280;36133;42.522;27.456;2023-07-02T09:11:59;100477.00;;;44.48;21.51
50250;BME280;36133;42.522;27.456;2023-07-02T09:14:31;100161.00;;;40.72;23.25
50250;BME280;36133;42.522;27.456;2023-07-02T09:17:10;100351.97;;;43.62;21.24
50250;BME280;36133;42.522;27.456;2023-07-02T09:19:36;100475.34;;;44.84;20.99
50250;BME280;36133;42.522;27.456;2023-07-02T09:22:05;100308.38;;;44.70;20.21
50250;BME280;36133;42.522;27.456;2023-07-02T09:24:31;100472.25;;;46.06;19.78
50250;BME280;36133;42.522;27.456;2023-07-02T09:26:59;100479.34;;;47.17;17.91
50250;BME280;36133;42.522;27.456;2023-07-02T09:29:32;100377.78;;;45.81;18.71
50250;BME280;36133;42.522;27.456;2023-07-02T09:31:59;100196.63;;;43.85;19.02
50250;BME280;36133;42.522;27.456;2023-07-02T09:34:34;100241.59;;;42.70;20.94
50250;BME280;36133;42.522;27.456;2023-07-02T09:53:08;100120.72;;;46.67;16.78
50250;BME280;36133;42.522;27.456;2023-07-02T09:55:34;100340.38;;;47.56;17.20
50250;BME280;36133;42.522;27.456;2023-07-02T09:58:00;100321.72;;;43.82;19.87
50250;BME280;36133;42.522;27.456;2023-07-02T10:00:25;100363.88;;;44.59;19.84
50250;BME280;36133;42.522;27.456;2023-07-02T10:02:57;100318.09;;;43.81;20.97
50250;BME280;36133;42.522;27.456;2023-07-02T10:05:33;100078.97;;;40.22;22.50
50250;BME280;36133;42.522;27.456;2023-07-02T10:08:11;100073.13;;;39.47;23.36
50250;BME280;36133;42.522;27.456;2023-07-02T10:10:43;100308.53;;;40.91;23.75
50250;BME280;36133;42.522;27.456;2023-07-02T10:13:08;100051.13;;;37.91;25.47
50250;BME280;36133;42.522;27.456;2023-07-02T10:15:34;100289.00;;;38.64;24.99
50250;BME280;36133;42.522;27.456;2023-07-02T10:18:04;100422.31;;;39.76;25.03
50250;BME280;36133;42.522;27.456;2023-07-02T10:20:35;100433.41;;;40.72;24.00
50250;BME280;36133;42.522;27.456;2023-07-02T10:23:08;100346.84;;;39.22;25.54
50250;BME280;36133;42.522;27.456;2023-07-02T10:25:35;100324.84;;;39.49;24.45
50250;BME280;36133;42.522;27.456;2023-07-02T10:28:21;100067.34;;;37.01;26.21
50250;BME280;36133;42.522;27.456;2023-07-02T10:30:55;99974.66;;;36.25;26.59
50250;BME280;36133;42.522;27.456;2023-07-02T10:33:22;100222.78;;;38.48;25.34
50250;BME280;36133;42.522;27.456;2023-07-02T10:35:49;100154.97;;;38.74;24.23
50250;BME280;36133;42.522;27.456;2023-07-02T10:40:44;100435.03;;;40.00;25.34
50250;BME280;36133;42.522;27.456;2023-07-02T10:43:10;100265.66;;;40.75;23.04
50250;BME280;36133;42.522;27.456;2023-07-02T10:45:36;100138.75;;;42.00;21.33
50250;BME280;36133;42.522;27.456;2023-07-02T10:48:03;100007.69;;;41.12;21.33
50250;BME280;36133;42.522;27.456;2023-07-02T10:50:37;100349.63;;;43.94;20.56
50250;BME280;36133;42.522;27.456;2023-07-02T10:53:05;100052.66;;;43.11;20.33
50250;BME280;36133;42.522;27.456;2023-07-02T10:55:31;100367.81;;;46.68;18.81
50250;BME280;36133;42.522;27.456;2023-07-02T10:58:10;100052.22;;;40.94;22.55
50250;BME280;36133;42.522;27.456;2023-07-02T11:00:47;100281.47;;;39.75;24.89
50250;BME280;36133;42.522;27.456;2023-07-02T11:03:29;99923.25;;;37.18;24.81
50250;BME280;36133;42.522;27.456;2023-07-02T11:05:57;100146.31;;;39.84;23.88
50250;BME280;36133;42.522;27.456;2023-07-02T11:08:34;100177.88;;;40.04;24.08
50250;BME280;36133;42.522;27.456;2023-07-02T11:11:12;100305.16;;;40.36;23.52
50250;BME280;36133;42.522;27.456;2023-07-02T11:13:44;100004.53;;;37.57;24.39
50250;BME280;36133;42.522;27.456;2023-07-02T11:16:24;99999.53;;;37.09;24.59
50250;BME280;36133;42.522;27.456;2023-07-02T11:19:06;100412.88;;;37.90;25.88
50250;BME280;36133;42.522;27.456;2023-07-02T11:21:37;100132.31;;;39.18;23.40
50250;BME280;36133;42.522;27.456;2023-07-02T11:24:04;100150.38;;;41.40;21.86
50250;BME280;36133;42.522;27.456;2023-07-02T11:26:40;100058.28;;;44.29;18.35
50250;BME280;36133;42.522;27.456;2023-07-02T11:29:18;100238.44;;;45.83;17.92
50250;BME280;36133;42.522;27.456;2023-07-02T11:31:46;100196.59;;;43.89;19.31
50250;BME280;36133;42.522;27.456;2023-07-02T11:34:17;100056.06;;;42.98;19.74
50250;BME280;36133;42.522;27.456;2023-07-02T11:36:48;100271.16;;;42.00;22.02
50250;BME280;36133;42.522;27.456;2023-07-02T11:39:18;100172.66;;;41.16;22.49
50250;BME280;36133;42.522;27.456;2023-07-02T11:41:53;100111.66;;;40.33;23.40
50250;BME280;36133;42.522;27.456;2023-07-02T11:44:21;100070.34;;;38.74;25.84
50250;BME280;36133;42.522;27.456;2023-07-02T11:46:56;99993.06;;;38.24;25.46
50250;BME280;36133;42.522;27.456;2023-07-02T11:49:22;100397.97;;;41.39;25.32
50250;BME280;36133;42.522;27.456;2023-07-02T11:51:57;100033.97;;;39.35;25.27
50250;BME280;36133;42.522;27.456;2023-07-02T11:54:32;100211.94;;;41.07;24.73
50250;BME280;36133;42.522;27.456;2023-07-02T11:57:04;100260.00;;;41.18;24.98
50250;BME280;36133;42.522;27.456;2023-07-02T11:59:33;100043.59;;;42.51;22.57
50250;BME280;36133;42.522;27.456;2023-07-02T12:02:03;100055.41;;;44.06;20.90
50250;BME280;36133;42.522;27.456;2023-07-02T12:04:29;100161.44;;;43.76;21.23
50250;BME280;36133;42.522;27.456;2023-07-02T12:06:56;100057.88;;;41.85;22.66
50250;BME280;36133;42.522;27.456;2023-07-02T12:09:31;100129.31;;;39.63;25.97
50250;BME280;36133;42.522;27.456;2023-07-02T12:11:57;100151.84;;;38.01;27.54
50250;BME280;36133;42.522;27.456;2023-07-02T12:14:25;100252.41;;;37.97;29.26
50250;BME280;36133;42.522;27.456;2023-07-02T12:16:57;99967.13;;;34.44;31.54
50250;BME280;36133;42.522;27.456;2023-07-02T12:19:26;100227.75;;;38.61;29.33
50250;BME280;36133;42.522;27.456;2023-07-02T12:21:51;100167.88;;;39.34;27.42
50250;BME280;36133;42.522;27.456;2023-07-02T12:24:17;100237.63;;;39.99;27.26
50250;BME280;36133;42.522;27.456;2023-07-02T12:26:46;100142.69;;;39.91;25.50
50250;BME280;36133;42.522;27.456;2023-07-02T12:29:14;99975.03;;;39.12;25.50
50250;BME280;36133;42.522;27.456;2023-07-02T12:31:43;100121.22;;;37.03;29.13
50250;BME280;36133;42.522;27.456;2023-07-02T12:34:09;100251.50;;;41.25;25.27
50250;BME280;36133;42.522;27.456;2023-07-02T12:36:34;100016.78;;;40.18;24.80
50250;BME280;36133;42.522;27.456;2023-07-02T12:39:06;100220.81;;;41.13;24.97
50250;BME280;36133;42.522;27.456;2023-07-02T12:41:39;100021.22;;;40.26;24.92
50250;BME280;36133;42.522;27.456;2023-07-02T12:44:05;100319.34;;;42.07;25.17
50250;BME280;36133;42.522;27.456;2023-07-02T12:46:31;100037.28;;;40.93;24.55
50250;BME280;36133;42.522;27.456;2023-07-02T12:49:03;100123.09;;;41.78;24.38
50250;BME280;36133;42.522;27.456;2023-07-02T12:51:31;100368.00;;;41.31;26.42
50250;BME280;36133;42.522;27.456;2023-07-02T12:53:56;100142.03;;;40.47;25.37
50250;BME280;36133;42.522;27.456;2023-07-02T12:56:28;100219.91;;;41.59;25.58
50250;BME280;36133;42.522;27.456;2023-07-02T12:58:54;100021.91;;;39.38;26.59
50250;BME280;36133;42.522;27.456;2023-07-02T13:01:30;99972.63;;;38.34;27.62
50250;BME280;36133;42.522;27.456;2023-07-02T13:03:56;100239.88;;;39.68;27.99